createdAt,value
2024-02-02T00:00:18.755Z,5.43
2024-02-02T00:02:45.444Z,5.05
2024-02-02T00:05:12.009Z,6.38
2024-02-02T00:07:38.546Z,5.68
2024-02-02T00:10:05.661Z,5.00
2024-02-02T00:12:32.825Z,6.28
2024-02-02T00:14:59.608Z,5.68
2024-02-02T00:17:26.966Z,6.25
2024-02-02T00:19:53.513Z,5.00
2024-02-02T00:22:22.162Z,5.90
2024-02-02T00:24:48.900Z,4.50
2024-02-02T00:27:16.199Z,5.65
2024-02-02T00:29:47.638Z,5.82
2024-02-02T00:32:14.925Z,4.97
2024-02-02T00:34:42.907Z,5.53
2024-02-02T00:37:09.832Z,5.68
2024-02-02T00:39:36.555Z,5.40
2024-02-02T00:42:03.332Z,5.65
2024-02-02T00:44:29.980Z,5.13
2024-02-02T00:46:56.540Z,4.85
2024-02-02T00:49:24.808Z,5.65
2024-02-02T00:51:52.123Z,5.40
2024-02-02T00:54:19.707Z,6.68
2024-02-02T00:56:46.675Z,6.00
2024-02-02T00:59:13.322Z,6.75
2024-02-02T01:01:40.692Z,5.63
2024-02-02T01:04:07.234Z,4.82
2024-02-02T01:06:34.153Z,5.93
2024-02-02T01:09:01.016Z,4.97
2024-02-02T01:11:28.107Z,5.20
2024-02-02T01:13:55.516Z,4.93
2024-02-02T01:16:22.678Z,5.07
2024-02-02T01:18:49.364Z,5.82
2024-02-02T01:21:16.462Z,5.25
2024-02-02T01:23:43.080Z,5.93
2024-02-02T01:26:09.670Z,5.95
2024-02-02T01:28:36.217Z,5.38
2024-02-02T01:31:02.770Z,6.88
2024-02-02T01:33:29.406Z,5.20
2024-02-02T01:35:56.099Z,5.25
2024-02-02T01:38:22.823Z,5.20
2024-02-02T01:40:50.308Z,7.07
2024-02-02T01:43:17.003Z,6.97
2024-02-02T01:45:43.559Z,5.05
2024-02-02T01:48:10.242Z,5.05
2024-02-02T01:50:37.988Z,5.15
2024-02-02T01:53:05.021Z,5.65
2024-02-02T01:55:31.672Z,4.72
2024-02-02T01:57:58.255Z,6.20
2024-02-02T02:00:25.282Z,5.00
2024-02-02T02:02:52.435Z,6.30
2024-02-02T03:06:46.410Z,5.75
2024-02-02T03:09:13.244Z,6.07
2024-02-02T03:11:39.908Z,5.90
2024-02-02T03:14:06.649Z,6.75
2024-02-02T03:16:33.281Z,6.40
2024-02-02T03:19:00.234Z,5.88
2024-02-02T03:21:26.983Z,7.45
2024-02-02T03:23:53.598Z,7.50
2024-02-02T03:26:20.136Z,6.78
2024-02-02T03:28:46.666Z,8.13
2024-02-02T03:31:14.028Z,7.85
2024-02-02T03:33:40.647Z,7.35
2024-02-02T03:36:07.537Z,8.95
2024-02-02T06:19:17.539Z,6.28
2024-02-02T06:21:44.983Z,6.55
2024-02-02T06:24:12.414Z,7.18
2024-02-02T06:26:39.939Z,6.95
2024-02-02T06:29:06.548Z,6.35
2024-02-02T06:31:33.161Z,6.50
2024-02-02T06:33:59.745Z,5.93
2024-02-02T06:36:28.529Z,6.32
2024-02-02T06:38:59.341Z,6.68
2024-02-02T06:41:25.934Z,6.70
2024-02-02T06:43:52.663Z,5.43
2024-02-02T06:46:19.366Z,5.35
2024-02-02T06:48:46.306Z,6.20
2024-02-02T06:51:13.732Z,6.22
2024-02-02T06:53:40.541Z,6.65
2024-02-02T06:56:30.149Z,6.13
2024-02-02T06:58:56.714Z,6.63
2024-02-02T07:01:23.745Z,5.47
2024-02-02T07:03:51.379Z,6.10
2024-02-02T07:06:18.343Z,6.03
2024-02-02T07:08:45.541Z,5.70
2024-02-02T07:11:12.017Z,5.28
2024-02-02T07:13:50.640Z,5.05
2024-02-02T07:16:28.860Z,5.53
2024-02-02T07:18:55.819Z,5.93
2024-02-02T07:21:30.911Z,5.80
2024-02-02T07:23:59.069Z,6.13
2024-02-02T07:26:28.007Z,6.20
2024-02-02T07:28:55.105Z,5.88
2024-02-02T07:31:46.228Z,5.72
2024-02-02T07:34:12.809Z,5.55
2024-02-02T07:36:39.998Z,6.75
2024-02-02T07:39:24.601Z,5.20
2024-02-02T07:41:51.141Z,5.57
2024-02-02T07:44:17.678Z,5.57
2024-02-02T07:46:44.426Z,6.40
2024-02-02T07:49:11.234Z,6.00
2024-02-02T07:51:41.142Z,6.05
2024-02-02T07:54:07.763Z,7.20
2024-02-02T07:56:34.324Z,7.40
2024-02-02T07:59:01.873Z,6.63
2024-02-02T08:01:34.649Z,8.43
2024-02-02T08:04:02.520Z,7.13
2024-02-02T08:06:29.961Z,6.90
2024-02-02T08:08:58.435Z,7.20
2024-02-02T08:11:26.879Z,6.22
2024-02-02T08:13:53.501Z,5.93
2024-02-02T08:16:20.242Z,6.78
2024-02-02T08:18:47.316Z,7.07
2024-02-02T08:21:14.132Z,7.30
2024-02-02T08:23:40.902Z,7.28
2024-02-02T08:26:07.727Z,6.75
2024-02-02T08:28:42.112Z,8.02
2024-02-02T08:31:15.745Z,6.57
2024-02-02T08:33:44.394Z,6.57
2024-02-02T08:36:12.470Z,7.57
2024-02-02T08:38:39.269Z,8.90
2024-02-02T08:41:06.388Z,6.90
2024-02-02T08:43:33.363Z,7.72
2024-02-02T08:46:09.402Z,6.97
2024-02-02T08:48:38.415Z,8.18
2024-02-02T08:51:43.732Z,6.32
2024-02-02T08:54:16.244Z,6.35
2024-02-02T08:57:23.499Z,5.55
2024-02-02T08:59:53.808Z,6.15
2024-02-02T09:02:53.185Z,6.80
2024-02-02T09:05:21.016Z,7.47
2024-02-02T09:07:55.787Z,7.65
2024-02-02T09:10:31.571Z,6.90
2024-02-02T09:13:02.525Z,7.80
2024-02-02T09:15:35.969Z,6.63
2024-02-02T09:18:03.165Z,8.02
2024-02-02T09:20:50.290Z,8.25
2024-02-02T09:23:20.742Z,8.40
2024-02-02T09:25:48.483Z,7.80
2024-02-02T09:28:26.958Z,7.35
2024-02-02T09:31:01.426Z,7.78
2024-02-02T09:33:47.530Z,8.13
2024-02-02T09:36:16.187Z,7.43
2024-02-02T09:38:56.687Z,7.47
2024-02-02T09:41:31.089Z,7.28
2024-02-02T09:44:22.392Z,7.97
2024-02-02T09:47:00.573Z,7.80
2024-02-02T09:49:46.704Z,7.00
2024-02-02T09:52:44.130Z,7.05
2024-02-02T09:55:33.679Z,7.43
2024-02-02T09:58:02.849Z,7.85
2024-02-02T10:01:01.250Z,6.88
2024-02-02T10:03:48.123Z,7.28
2024-02-02T10:07:02.251Z,6.45
2024-02-02T10:09:37.102Z,7.07
2024-02-02T10:12:06.436Z,5.80
2024-02-02T10:15:06.100Z,6.30
2024-02-02T10:17:59.233Z,5.75
2024-02-02T10:21:00.784Z,5.90
2024-02-02T10:24:11.325Z,5.53
2024-02-02T10:26:48.443Z,5.57
2024-02-02T10:29:34.197Z,4.68
2024-02-02T10:32:19.482Z,5.32
2024-02-02T10:35:17.271Z,3.90
2024-02-02T10:37:50.160Z,3.60
2024-02-02T10:40:40.333Z,4.50
2024-02-02T10:43:35.972Z,3.92
2024-02-02T10:46:05.504Z,4.78
2024-02-02T10:49:04.671Z,3.75
2024-02-02T10:52:01.760Z,3.88
2024-02-02T10:55:20.755Z,3.67
2024-02-02T10:58:20.910Z,3.72
2024-02-02T11:01:22.475Z,3.75
2024-02-02T11:04:11.279Z,3.85
2024-02-02T11:07:00.302Z,3.00
2024-02-02T11:09:45.773Z,3.63
2024-02-02T11:12:22.969Z,4.40
2024-02-02T11:14:56.734Z,3.92
2024-02-02T11:17:34.834Z,3.63
2024-02-02T11:20:29.185Z,3.60
2024-02-02T11:23:27.918Z,4.20
2024-02-02T11:25:57.453Z,4.07
2024-02-02T11:28:56.732Z,4.53
2024-02-02T11:31:50.733Z,5.40
2024-02-02T11:34:25.464Z,4.47
2024-02-02T11:37:13.327Z,4.40
2024-02-02T11:39:54.883Z,4.30
2024-02-02T11:42:22.636Z,5.15
2024-02-02T11:44:50.775Z,5.00
2024-02-02T11:47:20.252Z,4.35
2024-02-02T11:49:53.373Z,4.45
2024-02-02T11:52:28.708Z,4.28
2024-02-02T11:55:27.147Z,5.03
2024-02-02T11:58:03.804Z,5.20
2024-02-02T12:01:07.360Z,5.68
2024-02-02T12:04:13.102Z,6.85
2024-02-02T12:07:02.509Z,7.18
2024-02-02T12:09:42.984Z,5.38
2024-02-02T12:12:18.030Z,5.40
2024-02-02T12:14:50.038Z,5.53
2024-02-02T12:17:17.746Z,5.47
2024-02-02T12:19:45.574Z,5.30
2024-02-02T12:22:13.026Z,5.60
2024-02-02T12:24:42.033Z,6.00
2024-02-02T12:27:09.398Z,5.30
2024-02-02T12:29:39.421Z,5.30
2024-02-02T12:32:10.156Z,5.18
2024-02-02T12:34:37.759Z,6.27
2024-02-02T12:37:06.185Z,5.47
2024-02-02T12:39:33.237Z,5.00
2024-02-02T12:42:00.708Z,5.63
2024-02-02T12:44:27.581Z,5.38
2024-02-02T12:46:54.224Z,5.43
2024-02-02T12:49:25.508Z,5.55
2024-02-02T12:51:58.353Z,5.75
2024-02-02T12:54:25.357Z,6.95
2024-02-02T12:56:52.839Z,5.57
2024-02-02T12:59:20.003Z,5.57
2024-02-02T13:01:49.104Z,5.75
2024-02-02T13:04:16.631Z,5.93
2024-02-02T13:06:44.732Z,5.50
2024-02-02T13:09:33.402Z,6.90
2024-02-02T13:12:02.609Z,5.40
2024-02-02T13:14:32.187Z,6.00
2024-02-02T13:17:16.036Z,6.00
2024-02-02T13:19:46.235Z,6.10
2024-02-02T13:22:19.278Z,5.95
2024-02-02T13:24:48.936Z,6.18
2024-02-02T13:27:24.814Z,6.25
2024-02-02T13:30:03.552Z,5.53
2024-02-02T13:32:35.327Z,5.70
2024-02-02T13:35:02.690Z,5.95
2024-02-02T13:37:38.192Z,5.82
2024-02-02T13:40:10.727Z,6.15
2024-02-02T13:42:38.088Z,6.68
2024-02-02T13:45:12.220Z,7.63
2024-02-02T13:47:39.931Z,7.80
2024-02-02T13:50:31.241Z,6.78
2024-02-02T13:53:01.003Z,5.75
2024-02-02T13:55:32.746Z,5.78
2024-02-02T13:58:00.011Z,7.10
2024-02-02T14:00:33.242Z,5.70
2024-02-02T14:03:11.122Z,5.18
2024-02-02T14:05:40.689Z,5.97
2024-02-02T14:08:07.907Z,5.82
2024-02-02T14:10:47.430Z,6.18
2024-02-02T14:13:17.488Z,5.20
2024-02-02T14:15:49.374Z,6.32
2024-02-02T14:18:22.484Z,6.65
2024-02-02T14:20:49.264Z,6.22
2024-02-02T14:23:16.777Z,5.95
2024-02-02T14:25:44.537Z,5.68
2024-02-02T14:28:20.775Z,6.05
2024-02-02T14:30:48.085Z,6.80
2024-02-02T14:33:24.777Z,6.55
2024-02-02T14:35:52.838Z,6.38
2024-02-02T14:38:19.622Z,5.32
2024-02-02T14:40:46.258Z,6.40
2024-02-02T14:43:12.794Z,5.75
2024-02-02T14:45:39.657Z,6.50
2024-02-02T14:48:07.393Z,5.47
2024-02-02T14:50:36.478Z,6.93
2024-02-02T14:53:03.703Z,6.40
2024-02-02T14:55:33.622Z,6.85
2024-02-02T14:58:01.889Z,5.72
2024-02-02T15:00:32.047Z,6.05
2024-02-02T15:02:59.147Z,7.07
2024-02-02T15:05:26.466Z,7.53
2024-02-02T15:07:54.171Z,7.13
2024-02-02T15:10:21.489Z,7.60
2024-02-02T15:12:49.224Z,7.40
2024-02-02T15:15:16.331Z,6.78
2024-02-02T15:17:43.829Z,6.78
2024-02-02T15:20:11.589Z,7.72
2024-02-02T15:22:38.616Z,7.20
2024-02-02T15:25:06.028Z,8.30
2024-02-02T15:27:35.534Z,7.07
2024-02-02T15:32:34.329Z,7.57
2024-02-02T15:35:01.088Z,7.78
2024-02-02T15:37:28.245Z,6.68
2024-02-02T15:39:58.395Z,7.40
2024-02-02T15:42:26.687Z,7.95
2024-02-02T15:44:56.149Z,7.55
2024-02-02T15:47:22.713Z,7.40
2024-02-02T15:49:49.971Z,6.97
2024-02-02T15:52:16.816Z,7.75
2024-02-02T15:54:43.801Z,7.25
2024-02-02T15:57:11.374Z,7.30
2024-02-02T15:59:38.987Z,8.05
2024-02-02T16:02:09.274Z,7.43
2024-02-02T16:04:36.492Z,8.05
2024-02-02T16:07:05.570Z,7.20
2024-02-02T16:09:38.274Z,7.47
2024-02-02T16:12:09.708Z,7.03
2024-02-02T16:14:37.131Z,8.07
2024-02-02T16:17:04.155Z,7.45
2024-02-02T16:19:30.951Z,6.75
2024-02-02T16:21:57.726Z,7.57
2024-02-02T16:24:24.533Z,8.50
2024-02-02T16:26:53.503Z,8.07
2024-02-02T16:29:20.085Z,7.15
2024-02-02T16:31:47.627Z,7.78
2024-02-02T16:34:14.620Z,7.10
2024-02-02T16:36:46.111Z,7.43
2024-02-02T16:39:14.840Z,7.80
2024-02-02T16:41:42.639Z,8.05
2024-02-02T16:44:09.551Z,7.63
2024-02-02T16:46:43.931Z,8.27
2024-02-02T16:49:11.551Z,7.90
2024-02-02T16:51:38.523Z,7.82
2024-02-02T16:54:09.256Z,9.10
2024-02-02T16:56:37.232Z,9.90
2024-02-02T16:59:04.327Z,9.35
2024-02-02T17:01:35.287Z,8.85
2024-02-02T17:04:02.754Z,9.15
2024-02-02T17:06:30.750Z,8.70
2024-02-02T17:08:58.050Z,11.05
2024-02-02T17:11:25.098Z,10.25
2024-02-02T17:13:51.743Z,10.55
2024-02-02T17:16:21.221Z,10.52
2024-02-02T17:18:48.304Z,10.32
2024-02-02T17:21:15.426Z,11.52
2024-02-02T17:23:42.057Z,12.73
2024-02-02T17:26:16.053Z,11.75
2024-02-02T17:28:43.922Z,12.85
2024-02-02T17:31:15.190Z,12.50
2024-02-02T17:33:42.672Z,14.18
2024-02-02T17:36:16.525Z,15.15
2024-02-02T17:38:44.246Z,14.77
2024-02-02T17:41:15.655Z,15.88
2024-02-02T17:43:44.506Z,16.52
2024-02-02T17:46:20.380Z,15.13
2024-02-02T17:48:48.328Z,16.20
2024-02-02T17:51:25.595Z,16.50
2024-02-02T17:53:55.597Z,15.38
2024-02-02T17:56:23.779Z,17.00
2024-02-02T17:58:55.913Z,16.20
2024-02-02T18:01:24.125Z,16.27
2024-02-02T18:03:52.223Z,18.80
2024-02-02T18:06:18.978Z,17.88
2024-02-02T18:08:45.628Z,17.75
2024-02-02T18:11:12.207Z,18.40
2024-02-02T18:13:38.770Z,16.88
2024-02-02T18:16:05.600Z,15.13
2024-02-02T18:18:32.473Z,15.57
2024-02-02T18:20:59.169Z,16.75
2024-02-02T18:23:29.357Z,15.85
2024-02-02T18:25:56.284Z,15.35
2024-02-02T18:28:27.403Z,16.58
2024-02-02T18:30:56.100Z,15.27
2024-02-02T18:33:22.949Z,15.75
2024-02-02T18:35:50.287Z,18.05
2024-02-02T18:38:17.680Z,15.82
2024-02-02T18:40:46.726Z,17.33
2024-02-02T18:43:13.386Z,14.98
2024-02-02T18:45:40.023Z,16.33
2024-02-02T18:48:08.085Z,15.15
2024-02-02T18:50:35.035Z,15.95
2024-02-02T18:53:01.655Z,15.63
2024-02-02T18:55:28.357Z,15.02
2024-02-02T18:57:54.933Z,16.20
2024-02-02T19:00:21.670Z,15.52
2024-02-02T19:02:48.447Z,16.15
2024-02-02T19:05:15.179Z,15.20
2024-02-02T19:07:41.839Z,16.90
2024-02-02T19:10:08.688Z,15.40
2024-02-02T19:12:36.063Z,17.40
2024-02-02T19:15:05.579Z,15.45
2024-02-02T19:17:32.404Z,15.52
2024-02-02T19:20:00.003Z,15.38
2024-02-02T19:22:26.730Z,15.82
2024-02-02T19:24:54.010Z,16.00
2024-02-02T19:27:20.703Z,15.05
2024-02-02T19:29:47.254Z,15.15
2024-02-02T19:32:14.437Z,14.00
2024-02-02T19:34:41.482Z,13.73
2024-02-02T19:37:08.418Z,14.75
2024-02-02T19:39:35.118Z,15.32
2024-02-02T19:42:02.040Z,14.52
2024-02-02T19:44:28.673Z,15.65
2024-02-02T19:46:55.233Z,15.13
2024-02-02T19:49:22.254Z,15.07
2024-02-02T19:51:49.914Z,14.52
2024-02-02T19:54:18.430Z,14.85
2024-02-02T19:56:45.690Z,14.25
2024-02-02T19:59:17.590Z,14.27
2024-02-02T20:01:52.603Z,13.30
2024-02-02T20:04:19.248Z,15.05
2024-02-02T20:06:46.096Z,14.63
2024-02-02T20:09:14.709Z,15.15
2024-02-02T20:11:41.280Z,14.98
2024-02-02T20:14:07.862Z,15.48
2024-02-02T20:16:34.411Z,15.40
2024-02-02T20:19:01.243Z,14.95
2024-02-02T20:21:29.727Z,16.45
2024-02-02T20:23:56.700Z,15.55
2024-02-02T20:26:24.169Z,15.32
2024-02-02T20:28:52.510Z,15.50
2024-02-02T20:31:19.539Z,15.00
2024-02-02T20:33:46.593Z,15.93
2024-02-02T20:36:13.483Z,16.10
2024-02-02T20:38:41.574Z,14.43
2024-02-02T20:41:08.835Z,14.45
2024-02-02T20:43:36.312Z,14.55
2024-02-02T20:46:02.919Z,13.75
2024-02-02T20:48:29.493Z,13.98
2024-02-02T20:50:56.248Z,13.57
2024-02-02T20:53:22.875Z,14.48
2024-02-02T20:55:50.211Z,14.38
2024-02-02T20:58:16.932Z,15.10
2024-02-02T21:00:43.844Z,14.60
2024-02-02T21:03:11.410Z,14.32
2024-02-02T21:05:38.330Z,15.20
2024-02-02T21:08:05.400Z,14.55
2024-02-02T21:10:32.433Z,15.05
2024-02-02T21:12:59.282Z,13.82
2024-02-02T21:15:31.039Z,14.15
2024-02-02T21:17:58.304Z,14.65
2024-02-02T21:20:32.089Z,14.10
2024-02-02T21:22:58.849Z,14.15
2024-02-02T21:25:26.449Z,14.70
2024-02-02T21:27:53.227Z,14.90
2024-02-02T21:30:19.917Z,13.43
2024-02-02T21:32:46.567Z,13.82
2024-02-02T21:35:13.335Z,13.30
2024-02-02T21:37:39.974Z,13.60
2024-02-02T21:40:07.335Z,13.77
2024-02-02T21:42:34.764Z,12.63
2024-02-02T21:45:01.388Z,13.70
2024-02-02T21:47:29.630Z,12.13
2024-02-02T21:49:56.474Z,12.40
2024-02-02T21:52:23.258Z,12.07
2024-02-02T21:54:49.852Z,11.98
2024-02-02T21:57:16.464Z,12.18
2024-02-02T21:59:43.051Z,11.73
2024-02-02T22:02:09.776Z,13.02
2024-02-02T22:04:36.430Z,12.40
2024-02-02T22:07:05.117Z,11.90
2024-02-02T22:09:32.097Z,12.65
2024-02-02T22:11:59.581Z,12.38
2024-02-02T22:14:26.222Z,12.93
2024-02-02T22:16:52.817Z,12.85
2024-02-02T22:19:19.489Z,12.20
2024-02-02T22:21:47.589Z,12.93
2024-02-02T22:24:14.554Z,13.85
2024-02-02T22:26:41.134Z,14.35
2024-02-02T22:29:07.741Z,13.38
2024-02-02T22:31:36.090Z,13.70
2024-02-02T22:34:03.027Z,13.52
2024-02-02T22:36:30.328Z,13.52
2024-02-02T22:38:57.138Z,13.90
2024-02-02T22:41:32.964Z,13.25
2024-02-02T22:44:02.117Z,13.50
2024-02-02T22:46:32.615Z,13.25
2024-02-02T22:48:59.498Z,12.98
2024-02-02T22:51:26.687Z,11.80
2024-02-02T22:53:53.546Z,12.68
2024-02-02T22:56:20.213Z,11.93
2024-02-02T22:58:46.841Z,12.00
2024-02-02T23:01:13.681Z,10.85
2024-02-02T23:03:40.534Z,11.20
2024-02-02T23:06:07.868Z,12.10
2024-02-02T23:08:35.438Z,11.00
2024-02-02T23:11:02.080Z,10.73
2024-02-02T23:13:28.662Z,10.50
2024-02-02T23:15:57.184Z,10.63
2024-02-02T23:18:25.126Z,11.23
2024-02-02T23:20:53.593Z,10.75
2024-02-02T23:23:23.378Z,9.98
2024-02-02T23:25:50.709Z,10.50
2024-02-02T23:28:18.494Z,9.43
2024-02-02T23:30:47.835Z,10.05
2024-02-02T23:33:15.411Z,9.13
2024-02-02T23:35:44.722Z,9.40
2024-02-02T23:38:11.448Z,8.75
2024-02-02T23:40:38.345Z,9.82
2024-02-02T23:43:05.988Z,9.57
2024-02-02T23:45:33.393Z,9.38
2024-02-02T23:48:00.051Z,9.90
2024-02-02T23:50:26.733Z,9.32
2024-02-02T23:52:53.333Z,9.60
2024-02-02T23:55:20.482Z,10.57
2024-02-02T23:57:47.501Z,10.18
